createdAt,value
2022-08-30T00:01:28.703Z,66.84
2022-08-30T00:03:58.029Z,67.22
2022-08-30T00:06:28.451Z,66.56
2022-08-30T00:08:56.234Z,67.45
2022-08-30T00:11:27.751Z,66.97
2022-08-30T00:13:58.123Z,67.06
2022-08-30T00:16:26.776Z,67.03
2022-08-30T00:18:55.234Z,67.12
2022-08-30T00:21:23.943Z,67.08
2022-08-30T00:23:51.624Z,66.98
2022-08-30T00:26:20.585Z,67.13
2022-08-30T00:28:47.895Z,67.23
2022-08-30T00:33:50.898Z,67.64
2022-08-30T00:36:18.192Z,67.67
2022-08-30T00:38:45.489Z,68.01
2022-08-30T00:44:11.693Z,67.38
2022-08-30T00:46:39.121Z,67.57
2022-08-30T00:49:10.836Z,67.77
2022-08-30T00:51:39.571Z,67.60
2022-08-30T00:57:06.191Z,67.23
2022-08-30T00:59:34.841Z,68.22
2022-08-30T01:02:04.404Z,67.98
2022-08-30T01:04:33.632Z,67.88
2022-08-30T01:07:01.039Z,68.45
2022-08-30T01:09:28.523Z,68.09
2022-08-30T01:11:56.004Z,68.38
2022-08-30T01:14:25.870Z,68.18
2022-08-30T01:16:57.329Z,68.39
2022-08-30T01:19:45.542Z,68.02
2022-08-30T01:22:36.893Z,68.14
2022-08-30T01:25:08.285Z,68.06
2022-08-30T01:27:39.891Z,68.11
2022-08-30T01:30:08.794Z,68.17
2022-08-30T01:32:43.229Z,68.23
2022-08-30T01:35:14.187Z,68.13
2022-08-30T01:37:41.856Z,68.24
2022-08-30T01:40:12.430Z,67.96
2022-08-30T01:42:39.888Z,68.19
2022-08-30T01:45:09.546Z,68.16
2022-08-30T01:47:37.576Z,67.71
2022-08-30T01:50:07.279Z,67.72
2022-08-30T01:52:35.457Z,68.01
2022-08-30T01:55:03.721Z,68.88
2022-08-30T01:57:31.231Z,68.82
2022-08-30T01:59:58.603Z,68.69
2022-08-30T02:02:29.217Z,69.12
2022-08-30T02:04:58.494Z,69.09
2022-08-30T02:07:27.003Z,68.88
2022-08-30T02:09:54.808Z,68.88
2022-08-30T02:12:22.136Z,69.01
2022-08-30T02:14:49.634Z,69.03
2022-08-30T02:17:17.292Z,69.51
2022-08-30T02:19:44.610Z,69.40
2022-08-30T02:22:12.709Z,69.22
2022-08-30T02:24:40.135Z,69.29
2022-08-30T02:27:07.864Z,69.69
2022-08-30T02:29:35.334Z,69.33
2022-08-30T02:38:00.726Z,69.06
2022-08-30T02:40:28.083Z,68.85
2022-08-30T02:42:55.551Z,69.05
2022-08-30T02:45:25.673Z,69.31
2022-08-30T02:47:53.546Z,69.29
2022-08-30T02:50:20.982Z,68.91
2022-08-30T02:52:48.519Z,69.37
2022-08-30T02:55:17.194Z,69.22
2022-08-30T02:57:44.744Z,69.12
2022-08-30T03:00:17.054Z,69.26
2022-08-30T03:02:44.474Z,69.39
2022-08-30T03:05:15.731Z,69.21
2022-08-30T03:07:44.171Z,69.45
2022-08-30T03:10:11.956Z,69.33
2022-08-30T03:12:42.058Z,69.24
2022-08-30T03:15:15.308Z,69.56
2022-08-30T03:17:42.800Z,69.30
2022-08-30T03:20:12.014Z,69.16
2022-08-30T03:22:39.945Z,69.53
2022-08-30T03:25:08.186Z,69.50
2022-08-30T03:27:35.673Z,69.57
2022-08-30T03:30:03.102Z,69.77
2022-08-30T03:32:30.343Z,69.86
2022-08-30T03:35:12.776Z,69.90
2022-08-30T03:37:40.606Z,70.00
2022-08-30T03:40:09.805Z,70.33
2022-08-30T03:42:38.601Z,70.08
2022-08-30T03:45:09.610Z,70.05
2022-08-30T03:47:37.112Z,70.28
2022-08-30T03:52:56.032Z,70.22
2022-08-30T03:55:23.849Z,70.20
2022-08-30T03:57:51.217Z,70.29
2022-08-30T04:00:20.289Z,70.22
2022-08-30T04:02:47.713Z,70.47
2022-08-30T04:05:16.417Z,70.37
2022-08-30T04:07:46.077Z,70.22
2022-08-30T04:10:13.389Z,70.49
2022-08-30T04:12:40.651Z,70.64
2022-08-30T04:15:10.588Z,70.84
2022-08-30T04:17:37.932Z,70.53
2022-08-30T04:20:06.140Z,70.71
2022-08-30T04:22:33.755Z,70.46
2022-08-30T04:25:01.024Z,70.80
2022-08-30T04:27:28.337Z,70.61
2022-08-30T04:29:56.347Z,70.62
2022-08-30T04:32:23.780Z,70.40
2022-08-30T04:34:59.671Z,70.39
2022-08-30T04:37:27.442Z,70.47
2022-08-30T04:40:02.357Z,70.57
2022-08-30T04:42:34.066Z,70.48
2022-08-30T04:45:14.970Z,71.09
2022-08-30T04:47:43.930Z,70.79
2022-08-30T04:50:16.855Z,71.01
2022-08-30T04:52:45.096Z,70.85
2022-08-30T04:55:18.076Z,70.85
2022-08-30T04:57:47.792Z,70.71
2022-08-30T05:00:15.703Z,70.36
2022-08-30T05:02:43.272Z,70.97
2022-08-30T05:05:29.797Z,70.46
2022-08-30T05:07:57.193Z,70.46
2022-08-30T05:10:24.989Z,70.42
2022-08-30T05:12:52.182Z,70.37
2022-08-30T05:15:19.724Z,70.38
2022-08-30T05:17:46.956Z,70.30
2022-08-30T05:20:14.392Z,70.24
2022-08-30T05:22:50.398Z,69.55
2022-08-30T05:26:08.488Z,69.68
2022-08-30T05:28:36.557Z,69.31
2022-08-30T05:31:23.453Z,69.83
2022-08-30T05:33:52.137Z,68.81
2022-08-30T05:36:24.667Z,68.99
2022-08-30T05:38:52.967Z,68.67
2022-08-30T05:41:23.336Z,68.46
2022-08-30T05:44:00.225Z,68.14
2022-08-30T05:49:07.448Z,67.37
2022-08-30T05:51:42.909Z,68.14
2022-08-30T05:54:12.671Z,68.67
2022-08-30T05:56:43.407Z,67.76
2022-08-30T05:59:11.212Z,67.52
2022-08-30T06:01:43.051Z,67.83
2022-08-30T06:04:12.650Z,67.38
2022-08-30T06:06:43.585Z,67.46
2022-08-30T06:09:13.520Z,66.58
2022-08-30T06:11:42.802Z,67.24
2022-08-30T06:14:23.008Z,66.04
2022-08-30T06:16:54.013Z,66.93
2022-08-30T06:19:24.962Z,66.56
2022-08-30T06:21:55.393Z,67.12
2022-08-30T06:24:35.822Z,67.43
2022-08-30T06:27:11.352Z,66.09
2022-08-30T06:29:39.107Z,66.38
2022-08-30T06:32:06.568Z,65.79
2022-08-30T06:34:33.878Z,66.21
2022-08-30T06:37:01.119Z,65.92
2022-08-30T06:39:28.435Z,65.34
2022-08-30T06:41:55.825Z,65.77
2022-08-30T06:44:23.119Z,65.10
2022-08-30T06:46:50.584Z,65.25
2022-08-30T06:49:18.004Z,66.28
2022-08-30T06:51:45.278Z,65.03
2022-08-30T06:54:13.640Z,65.20
2022-08-30T06:56:57.582Z,64.03
2022-08-30T06:59:26.851Z,64.59
2022-08-30T07:01:55.397Z,63.37
2022-08-30T07:04:22.755Z,63.07
2022-08-30T07:06:50.079Z,62.87
2022-08-30T07:09:17.631Z,60.76
2022-08-30T07:11:45.013Z,60.27
2022-08-30T07:14:12.358Z,60.82
2022-08-30T07:16:39.911Z,58.94
2022-08-30T07:19:07.731Z,59.00
2022-08-30T07:21:45.830Z,57.58
2022-08-30T07:24:14.146Z,58.57
2022-08-30T07:26:49.912Z,56.90
2022-08-30T07:29:18.822Z,57.70
2022-08-30T07:31:46.138Z,53.92
2022-08-30T07:34:13.581Z,53.67
2022-08-30T07:36:40.891Z,50.28
2022-08-30T07:39:09.928Z,46.78
2022-08-30T07:41:39.049Z,41.93
2022-08-30T07:44:08.347Z,37.03
2022-08-30T07:46:39.327Z,38.61
2022-08-30T07:49:10.863Z,40.92
2022-08-30T07:51:40.148Z,39.90
2022-08-30T07:54:07.894Z,43.25
2022-08-30T07:56:36.057Z,43.65
2022-08-30T07:59:03.465Z,47.02
2022-08-30T08:01:31.080Z,47.56
2022-08-30T08:03:58.601Z,48.75
2022-08-30T08:06:27.698Z,48.29
2022-08-30T08:09:02.496Z,50.59
2022-08-30T08:11:33.597Z,48.76
2022-08-30T08:14:03.021Z,47.85
2022-08-30T08:16:33.298Z,49.08
2022-08-30T08:19:00.890Z,50.52
2022-08-30T08:21:29.378Z,51.34
2022-08-30T08:23:56.743Z,50.16
2022-08-30T08:26:24.126Z,51.82
2022-08-30T08:28:51.561Z,50.58
2022-08-30T08:31:33.275Z,50.19
2022-08-30T08:34:03.328Z,51.00
2022-08-30T08:36:31.515Z,50.13
2022-08-30T08:38:59.966Z,50.43
2022-08-30T08:42:07.506Z,49.80
2022-08-30T08:45:11.269Z,46.45
2022-08-30T08:48:26.442Z,51.25
2022-08-30T08:51:15.583Z,48.62
2022-08-30T08:53:50.843Z,51.48
2022-08-30T08:56:22.801Z,51.68
2022-08-30T08:58:57.514Z,50.89
2022-08-30T09:01:31.164Z,49.88
2022-08-30T09:04:00.091Z,47.35
2022-08-30T09:06:45.790Z,50.68
2022-08-30T09:09:13.673Z,48.49
2022-08-30T09:11:44.346Z,48.20
2022-08-30T09:14:21.008Z,50.50
2022-08-30T09:17:02.907Z,50.10
2022-08-30T09:19:53.625Z,51.00
2022-08-30T09:22:37.893Z,49.27
2022-08-30T09:25:20.739Z,47.67
2022-08-30T09:27:51.381Z,46.31
2022-08-30T09:30:24.473Z,45.84
2022-08-30T09:33:07.776Z,49.03
2022-08-30T09:35:46.790Z,47.26
2022-08-30T09:38:23.884Z,47.33
2022-08-30T09:40:59.716Z,46.14
2022-08-30T09:43:33.897Z,48.89
2022-08-30T09:46:01.204Z,47.80
2022-08-30T09:48:31.563Z,46.83
2022-08-30T09:51:11.576Z,47.07
2022-08-30T09:54:38.919Z,47.48
2022-08-30T09:57:33.770Z,47.38
2022-08-30T10:00:09.453Z,47.02
2022-08-30T10:02:55.548Z,47.24
2022-08-30T10:05:49.064Z,47.28
2022-08-30T10:08:58.513Z,47.04
2022-08-30T10:11:44.873Z,48.34
2022-08-30T10:14:39.775Z,46.26
2022-08-30T10:17:35.085Z,47.64
2022-08-30T10:20:30.564Z,46.33
2022-08-30T10:23:33.477Z,46.67
2022-08-30T10:26:31.967Z,47.46
2022-08-30T10:29:53.935Z,45.42
2022-08-30T10:32:55.906Z,45.63
2022-08-30T10:35:38.353Z,46.31
2022-08-30T10:38:22.553Z,47.88
2022-08-30T10:41:14.971Z,47.32
2022-08-30T10:44:18.178Z,46.84
2022-08-30T10:47:31.716Z,47.05
2022-08-30T10:50:07.897Z,46.45
2022-08-30T10:52:54.287Z,47.81
2022-08-30T10:55:52.486Z,48.19
2022-08-30T10:58:20.770Z,46.71
2022-08-30T11:01:15.817Z,45.67
2022-08-30T11:04:26.921Z,46.47
2022-08-30T11:07:20.717Z,47.37
2022-08-30T11:10:03.473Z,46.49
2022-08-30T11:13:00.867Z,47.47
2022-08-30T11:15:36.183Z,45.74
2022-08-30T11:18:14.206Z,45.22
2022-08-30T11:20:52.552Z,48.31
2022-08-30T11:26:50.777Z,47.26
2022-08-30T11:29:36.015Z,46.83
2022-08-30T11:32:18.367Z,45.85
2022-08-30T11:34:49.469Z,46.82
2022-08-30T11:37:44.411Z,46.85
2022-08-30T11:40:22.746Z,45.94
2022-08-30T11:42:53.805Z,45.54
2022-08-30T11:45:36.194Z,44.51
2022-08-30T11:48:09.554Z,47.13
2022-08-30T11:51:07.376Z,46.25
2022-08-30T11:54:07.992Z,45.11
2022-08-30T11:57:09.827Z,45.36
2022-08-30T11:59:39.941Z,45.65
2022-08-30T12:02:09.039Z,44.77
2022-08-30T12:04:48.035Z,46.50
2022-08-30T12:08:02.856Z,46.99
2022-08-30T12:10:49.740Z,45.90
2022-08-30T12:13:31.138Z,46.42
2022-08-30T12:16:19.924Z,46.27
2022-08-30T12:19:00.266Z,47.31
2022-08-30T12:21:43.930Z,47.34
2022-08-30T12:24:26.502Z,46.82
2022-08-30T12:26:55.162Z,46.66
2022-08-30T12:29:28.544Z,47.18
2022-08-30T12:32:03.458Z,45.42
2022-08-30T12:34:41.836Z,46.51
2022-08-30T12:37:42.144Z,44.04
2022-08-30T12:40:19.453Z,45.91
2022-08-30T12:42:58.479Z,44.46
2022-08-30T12:45:45.373Z,45.46
2022-08-30T12:48:20.194Z,44.95
2022-08-30T12:50:57.010Z,46.46
2022-08-30T12:53:30.443Z,45.71
2022-08-30T12:56:07.084Z,45.54
2022-08-30T12:58:53.204Z,46.36
2022-08-30T13:01:33.828Z,44.80
2022-08-30T13:04:15.998Z,46.31
2022-08-30T13:06:53.549Z,44.57
2022-08-30T13:09:38.111Z,46.18
2022-08-30T13:12:16.123Z,46.49
2022-08-30T13:14:45.967Z,46.29
2022-08-30T13:17:19.009Z,44.76
2022-08-30T13:20:05.511Z,45.11
2022-08-30T13:22:40.253Z,43.60
2022-08-30T13:25:11.176Z,46.03
2022-08-30T13:27:40.210Z,46.02
2022-08-30T13:30:13.501Z,44.96
2022-08-30T13:32:42.312Z,46.04
2022-08-30T13:35:11.406Z,46.33
2022-08-30T13:37:49.419Z,45.49
2022-08-30T13:40:20.007Z,46.58
2022-08-30T13:42:47.626Z,45.60
2022-08-30T13:48:06.462Z,45.76
2022-08-30T13:50:34.436Z,43.78
2022-08-30T13:53:01.978Z,45.51
2022-08-30T13:55:29.556Z,46.74
2022-08-30T13:57:57.939Z,46.53
2022-08-30T14:00:27.444Z,46.89
2022-08-30T14:02:57.730Z,46.00
2022-08-30T14:05:51.546Z,46.28
2022-08-30T14:08:45.943Z,46.73
2022-08-30T14:11:19.483Z,46.26
2022-08-30T14:16:40.490Z,45.37
2022-08-30T14:19:11.600Z,45.54
2022-08-30T14:21:39.493Z,46.55
2022-08-30T14:24:07.469Z,47.55
2022-08-30T14:26:45.840Z,48.21
2022-08-30T14:29:17.099Z,48.58
2022-08-30T14:31:45.517Z,48.64
2022-08-30T14:34:14.709Z,48.56
2022-08-30T14:36:44.651Z,49.29
2022-08-30T14:39:18.023Z,49.51
2022-08-30T14:41:50.359Z,49.74
2022-08-30T14:44:20.414Z,48.23
2022-08-30T14:46:48.668Z,47.39
2022-08-30T14:49:17.004Z,47.15
2022-08-30T14:51:53.020Z,48.22
2022-08-30T14:54:29.614Z,49.92
2022-08-30T14:56:59.192Z,48.71
2022-08-30T14:59:27.567Z,48.42
2022-08-30T15:01:55.719Z,47.43
2022-08-30T15:04:32.320Z,48.08
2022-08-30T15:07:09.404Z,48.33
2022-08-30T15:09:39.105Z,48.70
2022-08-30T15:12:06.728Z,48.07
2022-08-30T15:14:35.499Z,47.02
2022-08-30T15:17:04.128Z,48.19
2022-08-30T15:19:32.343Z,48.46
2022-08-30T15:22:04.062Z,48.90
2022-08-30T15:24:33.534Z,47.53
2022-08-30T15:27:03.737Z,44.97
2022-08-30T15:29:32.182Z,45.79
2022-08-30T15:32:03.872Z,46.40
2022-08-30T15:34:33.429Z,46.59
2022-08-30T15:37:02.150Z,46.72
2022-08-30T15:39:32.385Z,46.23
2022-08-30T15:42:01.550Z,45.48
2022-08-30T15:44:31.440Z,46.60
2022-08-30T15:47:01.655Z,45.89
2022-08-30T15:49:29.777Z,46.74
2022-08-30T15:52:03.089Z,46.94
2022-08-30T15:54:30.621Z,47.32
2022-08-30T15:57:01.424Z,47.64
2022-08-30T15:59:31.105Z,46.30
2022-08-30T16:01:59.279Z,47.98
2022-08-30T16:04:27.033Z,46.34
2022-08-30T16:06:55.411Z,48.10
2022-08-30T16:09:23.674Z,47.24
2022-08-30T16:11:51.201Z,47.58
2022-08-30T16:14:19.195Z,47.70
2022-08-30T16:16:46.728Z,48.04
2022-08-30T16:19:14.219Z,47.91
2022-08-30T16:21:43.458Z,48.58
2022-08-30T16:24:13.851Z,48.11
2022-08-30T16:26:43.119Z,48.64
2022-08-30T16:29:12.541Z,48.00
2022-08-30T16:31:40.750Z,47.44
2022-08-30T16:34:08.205Z,48.46
2022-08-30T16:36:36.467Z,48.42
2022-08-30T16:39:08.334Z,48.53
2022-08-30T16:41:37.814Z,48.50
2022-08-30T16:44:08.474Z,48.58
2022-08-30T16:46:37.499Z,47.62
2022-08-30T16:49:06.027Z,47.99
2022-08-30T16:51:36.989Z,48.11
2022-08-30T16:54:08.067Z,48.89
2022-08-30T16:56:39.374Z,49.13
2022-08-30T16:59:11.236Z,49.13
2022-08-30T17:01:42.568Z,49.61
2022-08-30T17:07:15.804Z,49.96
2022-08-30T17:09:45.987Z,49.47
2022-08-30T17:12:14.353Z,49.91
2022-08-30T17:14:43.169Z,50.59
2022-08-30T17:17:11.410Z,51.03
2022-08-30T17:19:43.445Z,51.42
2022-08-30T17:22:14.666Z,50.29
2022-08-30T17:24:43.641Z,50.23
2022-08-30T17:27:14.332Z,50.08
2022-08-30T17:29:43.658Z,50.92
2022-08-30T17:32:13.130Z,50.06
2022-08-30T17:34:41.138Z,50.53
2022-08-30T17:37:10.467Z,49.46
2022-08-30T17:39:39.681Z,49.08
2022-08-30T17:42:10.253Z,49.69
2022-08-30T17:44:42.269Z,50.36
2022-08-30T17:47:10.208Z,50.51
2022-08-30T17:49:39.491Z,50.83
2022-08-30T17:52:08.142Z,50.68
2022-08-30T17:54:40.541Z,51.30
2022-08-30T17:57:11.048Z,51.63
2022-08-30T17:59:40.946Z,52.52
2022-08-30T18:02:11.351Z,52.77
2022-08-30T18:04:41.883Z,52.53
2022-08-30T18:07:12.049Z,51.79
2022-08-30T18:09:42.395Z,52.07
2022-08-30T18:12:12.385Z,52.36
2022-08-30T18:14:45.097Z,50.87
2022-08-30T18:17:12.607Z,52.31
2022-08-30T18:19:46.283Z,51.47
2022-08-30T18:22:14.911Z,51.50
2022-08-30T18:24:42.444Z,51.69
2022-08-30T18:27:10.418Z,52.19
2022-08-30T18:29:49.520Z,52.24
2022-08-30T18:32:18.899Z,53.10
2022-08-30T18:34:48.717Z,52.36
2022-08-30T18:37:16.932Z,52.55
2022-08-30T18:39:45.991Z,53.53
2022-08-30T18:42:15.971Z,53.66
2022-08-30T18:44:44.095Z,54.15
2022-08-30T18:47:13.289Z,54.31
2022-08-30T18:49:43.064Z,53.44
2022-08-30T18:52:12.983Z,53.40
2022-08-30T18:54:51.762Z,53.68
2022-08-30T18:57:22.537Z,53.13
2022-08-30T18:59:51.176Z,53.28
2022-08-30T19:02:19.990Z,53.20
2022-08-30T19:04:49.305Z,53.14
2022-08-30T19:07:21.121Z,52.66
2022-08-30T19:09:56.158Z,52.69
2022-08-30T19:12:27.971Z,52.53
2022-08-30T19:14:57.532Z,53.33
2022-08-30T19:17:27.091Z,53.61
2022-08-30T19:19:55.671Z,53.59
2022-08-30T19:22:26.748Z,53.67
2022-08-30T19:24:58.499Z,54.05
2022-08-30T19:27:37.762Z,54.91
2022-08-30T19:30:22.335Z,54.86
2022-08-30T19:32:53.175Z,54.88
2022-08-30T19:35:23.065Z,54.40
2022-08-30T19:37:52.950Z,54.29
2022-08-30T19:40:22.290Z,54.57
2022-08-30T19:42:52.064Z,54.72
2022-08-30T19:45:23.213Z,54.21
2022-08-30T19:47:53.312Z,53.55
2022-08-30T19:50:22.639Z,52.81
2022-08-30T19:52:54.781Z,52.64
2022-08-30T19:55:40.881Z,52.68
2022-08-30T19:58:09.448Z,53.02
2022-08-30T20:00:39.954Z,52.90
2022-08-30T20:03:20.543Z,52.83
2022-08-30T20:05:48.251Z,53.54
2022-08-30T20:08:16.722Z,53.30
2022-08-30T20:10:47.671Z,53.52
2022-08-30T20:13:17.462Z,53.84
2022-08-30T20:15:59.341Z,53.50
2022-08-30T20:18:27.309Z,53.49
2022-08-30T20:20:55.304Z,53.77
2022-08-30T20:23:26.148Z,54.17
2022-08-30T20:24:23.330Z,49.38
2022-08-30T20:25:55.673Z,54.14
2022-08-30T20:28:25.973Z,54.49
2022-08-30T20:30:56.457Z,54.43
2022-08-30T20:33:26.217Z,54.54
2022-08-30T20:35:54.095Z,54.78
2022-08-30T20:38:22.209Z,55.11
2022-08-30T20:40:56.524Z,54.85
2022-08-30T20:43:28.778Z,55.13
2022-08-30T20:45:57.127Z,55.13
2022-08-30T20:48:29.461Z,55.44
2022-08-30T20:50:57.070Z,55.41
2022-08-30T20:53:26.010Z,55.75
2022-08-30T20:55:54.693Z,55.59
2022-08-30T20:58:29.598Z,55.59
2022-08-30T21:00:57.903Z,55.69
2022-08-30T21:03:26.073Z,55.37
2022-08-30T21:08:59.273Z,55.92
2022-08-30T21:14:24.213Z,56.32
2022-08-30T21:16:51.668Z,56.04
2022-08-30T21:19:19.434Z,56.47
2022-08-30T21:21:47.046Z,56.87
2022-08-30T21:24:14.882Z,56.27
2022-08-30T21:26:47.864Z,56.75
2022-08-30T21:32:55.627Z,57.28
2022-08-30T21:38:17.086Z,57.54
2022-08-30T22:01:55.031Z,58.07
2022-08-30T22:04:26.206Z,58.12
2022-08-30T22:07:08.412Z,58.22
2022-08-30T22:09:38.179Z,58.29
2022-08-30T22:15:08.208Z,58.53
2022-08-30T22:17:35.721Z,58.50
2022-08-30T22:20:05.020Z,58.66
2022-08-30T22:22:32.962Z,59.14
2022-08-30T22:25:00.401Z,59.08
2022-08-30T22:27:27.958Z,58.81
2022-08-30T22:33:19.813Z,58.25
2022-08-30T22:35:47.879Z,58.34
2022-08-30T22:38:15.574Z,58.35
2022-08-30T22:40:52.242Z,58.66
2022-08-30T22:43:20.037Z,58.44
2022-08-30T22:51:45.451Z,59.22
2022-08-30T22:54:13.121Z,59.40
2022-08-30T22:56:41.525Z,60.16
2022-08-30T22:59:09.113Z,59.59
2022-08-30T23:01:40.447Z,59.63
2022-08-30T23:04:09.639Z,59.45
2022-08-30T23:15:24.701Z,60.40
2022-08-30T23:17:52.903Z,60.21
2022-08-30T23:20:20.895Z,60.29
2022-08-30T23:25:56.183Z,60.27
2022-08-30T23:28:42.221Z,60.46
2022-08-30T23:31:36.183Z,60.38
2022-08-30T23:34:22.530Z,60.73
2022-08-30T23:37:04.488Z,60.46
2022-08-30T23:39:51.241Z,61.03
2022-08-30T23:42:37.282Z,60.45
2022-08-30T23:45:23.781Z,60.65
2022-08-30T23:48:09.724Z,61.09
2022-08-30T23:50:55.647Z,61.39
2022-08-30T23:56:41.242Z,61.01
2022-08-30T23:59:28.796Z,61.40
